createdAt,value
2023-02-09T00:01:54.774Z,102266.44
2023-02-09T00:07:00.278Z,102278.19
2023-02-09T00:12:22.901Z,102276.41
2023-02-09T00:17:25.666Z,102273.72
2023-02-09T00:22:28.632Z,102271.97
2023-02-09T00:27:35.508Z,102270.31
2023-02-09T00:32:39.565Z,102270.38
2023-02-09T00:37:42.372Z,102264.06
2023-02-09T00:42:46.549Z,102264.16
2023-02-09T00:47:50.229Z,102259.50
2023-02-09T00:52:53.226Z,102254.28
2023-02-09T00:57:57.563Z,102259.50
2023-02-09T01:03:00.359Z,102261.31
2023-02-09T01:08:03.169Z,102256.03
2023-02-09T01:13:07.396Z,102239.25
2023-02-09T01:18:10.241Z,102246.19
2023-02-09T01:23:13.012Z,102232.09
2023-02-09T01:28:17.160Z,102235.66
2023-02-09T01:33:19.926Z,102236.66
2023-02-09T01:38:23.979Z,102222.44
2023-02-09T01:43:28.264Z,102220.88
2023-02-09T01:48:31.618Z,102217.50
2023-02-09T01:53:34.403Z,102201.72
2023-02-09T01:58:38.541Z,102210.91
2023-02-09T02:03:41.334Z,102209.28
2023-02-09T02:08:46.567Z,102205.94
2023-02-09T02:13:50.660Z,102211.31
2023-02-09T02:19:02.948Z,102205.53
2023-02-09T02:24:19.971Z,102198.69
2023-02-09T02:29:46.678Z,102207.84
2023-02-09T02:34:52.363Z,102192.38
2023-02-09T02:40:00.320Z,102195.34
2023-02-09T02:45:12.451Z,102193.78
2023-02-09T02:50:17.796Z,102187.00
2023-02-09T02:55:21.403Z,102184.59
2023-02-09T03:00:25.440Z,102192.78
2023-02-09T03:05:29.755Z,102193.03
2023-02-09T03:10:34.518Z,102182.50
2023-02-09T03:15:44.008Z,102187.09
2023-02-09T03:20:51.398Z,102185.44
2023-02-09T03:25:54.197Z,102190.88
2023-02-09T03:30:57.168Z,102181.25
2023-02-09T03:36:02.274Z,102158.56
2023-02-09T03:41:07.229Z,102186.81
2023-02-09T03:46:10.887Z,102168.22
2023-02-09T03:51:15.090Z,102171.06
2023-02-09T03:56:17.931Z,102166.66
2023-02-09T04:01:20.791Z,102159.69
2023-02-09T04:06:25.190Z,102164.25
2023-02-09T04:11:28.792Z,102163.41
2023-02-09T04:16:32.008Z,102153.63
2023-02-09T04:21:36.264Z,102156.38
2023-02-09T04:26:39.126Z,102145.63
2023-02-09T04:31:41.947Z,102141.25
2023-02-09T04:36:46.130Z,102140.34
2023-02-09T04:41:49.014Z,102137.59
2023-02-09T04:46:51.807Z,102127.97
2023-02-09T04:51:56.052Z,102140.47
2023-02-09T04:57:12.944Z,102128.13
2023-02-09T05:02:15.993Z,102132.59
2023-02-09T05:07:20.183Z,102130.06
2023-02-09T05:12:22.986Z,102116.09
2023-02-09T05:17:25.894Z,102124.84
2023-02-09T05:22:30.126Z,102137.34
2023-02-09T05:27:32.876Z,102129.41
2023-02-09T05:32:35.656Z,102116.97
2023-02-09T05:37:39.781Z,102119.72
2023-02-09T05:42:42.579Z,102116.16
2023-02-09T05:47:45.327Z,102114.44
2023-02-09T05:52:49.471Z,102121.59
2023-02-09T05:57:52.232Z,102117.22
2023-02-09T06:02:54.988Z,102107.44
2023-02-09T06:07:59.174Z,102113.72
2023-02-09T06:13:01.955Z,102103.09
2023-02-09T06:18:05.012Z,102105.75
2023-02-09T06:23:09.153Z,102097.88
2023-02-09T06:28:12.064Z,102101.41
2023-02-09T06:33:14.969Z,102105.09
2023-02-09T06:38:19.105Z,102113.13
2023-02-09T06:43:21.953Z,102120.28
2023-02-09T06:48:24.773Z,102132.84
2023-02-09T06:53:29.062Z,102138.19
2023-02-09T06:58:31.865Z,102136.50
2023-02-09T07:03:34.715Z,102146.28
2023-02-09T07:08:38.873Z,102139.25
2023-02-09T07:13:41.645Z,102136.56
2023-02-09T07:18:44.601Z,102144.53
2023-02-09T07:23:48.830Z,102129.44
2023-02-09T07:28:51.625Z,102133.91
2023-02-09T07:33:55.160Z,102133.91
2023-02-09T07:38:59.567Z,102130.34
2023-02-09T07:44:03.046Z,102130.28
2023-02-09T07:49:05.817Z,102123.22
2023-02-09T07:54:13.396Z,102123.66
2023-02-09T07:59:16.557Z,102124.78
2023-02-09T08:04:19.556Z,102139.63
2023-02-09T08:09:23.742Z,102159.81
2023-02-09T08:14:27.555Z,102149.69
2023-02-09T08:19:30.362Z,102141.22
2023-02-09T08:24:34.581Z,102149.66
2023-02-09T08:29:37.368Z,102149.88
2023-02-09T08:34:40.133Z,102123.91
2023-02-09T08:39:45.168Z,102134.06
2023-02-09T08:44:47.940Z,102135.75
2023-02-09T08:49:51.563Z,102121.66
2023-02-09T08:54:55.797Z,102113.22
2023-02-09T08:59:58.543Z,102114.69
2023-02-09T09:05:01.237Z,102107.50
2023-02-09T09:10:06.107Z,102113.72
2023-02-09T09:15:09.546Z,102111.97
2023-02-09T09:20:12.745Z,102106.66
2023-02-09T09:25:17.030Z,102118.25
2023-02-09T09:30:20.197Z,102114.88
2023-02-09T09:35:22.965Z,102114.00
2023-02-09T09:40:28.913Z,102116.97
2023-02-09T09:45:33.186Z,102121.69
2023-02-09T09:50:38.159Z,102131.56
2023-02-09T09:55:42.283Z,102129.00
2023-02-09T10:00:45.025Z,102120.13
2023-02-09T10:05:49.168Z,102124.59
2023-02-09T10:10:56.386Z,102122.88
2023-02-09T10:15:59.534Z,102119.19
2023-02-09T10:21:03.350Z,102114.72
2023-02-09T10:26:24.308Z,102112.84
2023-02-09T10:31:33.312Z,102096.81
2023-02-09T10:36:37.546Z,102100.34
2023-02-09T10:41:43.681Z,102082.00
2023-02-09T10:46:47.113Z,102057.56
2023-02-09T10:51:51.097Z,102052.16
2023-02-09T10:56:55.268Z,102039.75
2023-02-09T11:01:58.865Z,102025.25
2023-02-09T11:07:02.884Z,102019.41
2023-02-09T11:12:07.422Z,102013.47
2023-02-09T11:17:15.700Z,101991.00
2023-02-09T11:22:20.351Z,101968.22
2023-02-09T11:27:44.642Z,101952.47
2023-02-09T11:32:49.392Z,101964.94
2023-02-09T11:37:55.021Z,101970.06
2023-02-09T11:43:07.944Z,101969.22
2023-02-09T11:48:12.188Z,101962.34
2023-02-09T11:53:21.224Z,101962.50
2023-02-09T11:58:30.789Z,101961.78
2023-02-09T12:03:33.566Z,101953.94
2023-02-09T12:08:45.332Z,101940.97
2023-02-09T12:13:58.509Z,101929.63
2023-02-09T12:19:01.647Z,101928.97
2023-02-09T12:24:04.520Z,101915.72
2023-02-09T12:29:26.400Z,101918.47
2023-02-09T12:34:30.382Z,101898.13
2023-02-09T12:39:33.205Z,101907.25
2023-02-09T12:44:54.709Z,101910.97
2023-02-09T12:50:03.829Z,101908.53
2023-02-09T12:55:24.332Z,101899.94
2023-02-09T13:00:33.626Z,101904.13
2023-02-09T13:05:39.108Z,101893.44
2023-02-09T13:10:43.682Z,101873.22
2023-02-09T13:15:51.611Z,101887.03
2023-02-09T13:21:16.372Z,101879.31
2023-02-09T13:26:20.512Z,101878.34
2023-02-09T13:31:35.446Z,101896.66
2023-02-09T13:36:40.476Z,101895.31
2023-02-09T13:41:48.338Z,101890.38
2023-02-09T13:46:57.085Z,101890.84
2023-02-09T13:52:10.067Z,101885.94
2023-02-09T13:57:19.182Z,101885.66
2023-02-09T14:02:25.530Z,101875.22
2023-02-09T14:07:30.349Z,101861.41
2023-02-09T14:12:52.184Z,101867.75
2023-02-09T14:17:56.608Z,101875.47
2023-02-09T14:23:00.276Z,101869.09
2023-02-09T14:28:03.528Z,101875.41
2023-02-09T14:33:17.608Z,101892.47
2023-02-09T14:38:35.084Z,101881.00
2023-02-09T14:43:37.894Z,101888.19
2023-02-09T14:48:42.089Z,101894.53
2023-02-09T14:53:44.994Z,101905.19
2023-02-09T14:58:47.815Z,101903.34
2023-02-09T15:03:51.974Z,101899.13
2023-02-09T15:08:54.810Z,101914.38
2023-02-09T15:13:58.365Z,101916.38
2023-02-09T15:19:04.775Z,101912.81
2023-02-09T15:24:07.700Z,101919.28
2023-02-09T15:29:12.215Z,101906.81
2023-02-09T15:34:16.475Z,101913.16
2023-02-09T15:39:20.853Z,101905.28
2023-02-09T15:44:49.370Z,101905.50
2023-02-09T15:49:54.641Z,101883.41
2023-02-09T15:54:57.522Z,101893.84
2023-02-09T16:00:00.290Z,101890.97
2023-02-09T16:05:04.631Z,101886.97
2023-02-09T16:10:08.235Z,101873.47
2023-02-09T16:15:15.530Z,101889.53
2023-02-09T16:20:20.409Z,101886.19
2023-02-09T16:25:24.388Z,101890.13
2023-02-09T16:30:28.365Z,101883.00
2023-02-09T16:35:32.526Z,101899.19
2023-02-09T16:40:35.328Z,101895.91
2023-02-09T16:45:38.660Z,101906.22
2023-02-09T16:50:46.823Z,101921.34
2023-02-09T16:55:50.350Z,101940.31
2023-02-09T17:00:53.487Z,101933.47
2023-02-09T17:05:57.628Z,101946.09
2023-02-09T17:11:00.869Z,101944.16
2023-02-09T17:16:05.096Z,101937.25
2023-02-09T17:21:10.646Z,101932.50
2023-02-09T17:26:13.578Z,101956.09
2023-02-09T17:31:18.056Z,101962.63
2023-02-09T17:36:27.606Z,101972.88
2023-02-09T17:41:33.911Z,101960.72
2023-02-09T17:46:36.818Z,101948.56
2023-02-09T17:51:41.797Z,101943.44
2023-02-09T17:56:44.636Z,101940.25
2023-02-09T18:01:49.686Z,101933.53
2023-02-09T18:06:55.481Z,101941.00
2023-02-09T18:12:02.013Z,101946.72
2023-02-09T18:17:04.965Z,101947.28
2023-02-09T18:22:11.832Z,101958.00
2023-02-09T18:27:14.960Z,101975.97
2023-02-09T18:32:18.208Z,101975.38
2023-02-09T18:37:22.485Z,101971.91
2023-02-09T18:42:25.419Z,101983.41
2023-02-09T18:47:28.247Z,101982.81
2023-02-09T18:52:32.409Z,101987.19
2023-02-09T18:57:35.192Z,101975.28
2023-02-09T19:02:38.330Z,101999.22
2023-02-09T19:07:43.711Z,101985.44
2023-02-09T19:12:46.708Z,101993.91
2023-02-09T19:17:49.684Z,101997.94
2023-02-09T19:22:53.898Z,101997.50
2023-02-09T19:27:57.052Z,101994.66
2023-02-09T19:33:00.173Z,102003.44
2023-02-09T19:38:04.327Z,102001.53
2023-02-09T19:43:07.364Z,101988.19
2023-02-09T19:48:11.475Z,101984.53
2023-02-09T19:53:15.745Z,101977.19
2023-02-09T19:58:21.250Z,101974.22
2023-02-09T20:03:24.216Z,101979.91
2023-02-09T20:08:28.679Z,101980.53
2023-02-09T20:13:31.550Z,101969.72
2023-02-09T20:18:34.336Z,101961.53
2023-02-09T20:23:38.618Z,101968.63
2023-02-09T20:28:41.401Z,101966.56
2023-02-09T20:33:44.275Z,101977.47
2023-02-09T20:38:48.565Z,101985.31
2023-02-09T20:44:09.067Z,101969.25
2023-02-09T20:49:12.815Z,101980.81
2023-02-09T20:54:17.052Z,101977.31
2023-02-09T20:59:20.108Z,101979.78
2023-02-09T21:04:23.042Z,101989.63
2023-02-09T21:09:28.260Z,101982.38
2023-02-09T21:14:41.556Z,101977.88
2023-02-09T21:19:45.508Z,101996.44
2023-02-09T21:24:49.804Z,101995.72
2023-02-09T21:29:52.704Z,101986.56
2023-02-09T21:34:55.462Z,101989.19
2023-02-09T21:40:02.786Z,101991.72
2023-02-09T21:45:07.772Z,101987.97
2023-02-09T21:50:12.382Z,102001.44
2023-02-09T21:55:17.007Z,102011.94
2023-02-09T22:00:20.133Z,102017.47
2023-02-09T22:05:22.998Z,102019.13
2023-02-09T22:10:27.119Z,102019.22
2023-02-09T22:15:29.977Z,102025.44
2023-02-09T22:20:32.779Z,102024.72
2023-02-09T22:25:37.023Z,102036.31
2023-02-09T22:30:39.844Z,102027.63
2023-02-09T22:35:42.631Z,102034.06
2023-02-09T22:40:46.762Z,102038.56
2023-02-09T22:45:55.799Z,102051.13
2023-02-09T22:50:58.768Z,102054.81
2023-02-09T22:56:04.209Z,102058.47
2023-02-09T23:01:07.266Z,102063.81
2023-02-09T23:06:11.870Z,102062.00
2023-02-09T23:11:16.811Z,102070.28
2023-02-09T23:16:20.536Z,102061.31
2023-02-09T23:21:24.530Z,102049.13
2023-02-09T23:26:28.662Z,102060.72
2023-02-09T23:31:31.658Z,102066.09
2023-02-09T23:36:34.926Z,102059.16
2023-02-09T23:41:39.148Z,102053.69
2023-02-09T23:46:41.962Z,102062.75
2023-02-09T23:51:45.038Z,102057.47
2023-02-09T23:56:49.854Z,102050.66
